createdAt,value
2023-02-28T00:00:39.105Z,9.63
2023-02-28T00:03:06.208Z,7.50
2023-02-28T00:05:33.213Z,6.63
2023-02-28T00:07:59.922Z,7.03
2023-02-28T00:10:29.740Z,6.07
2023-02-28T00:13:00.890Z,7.65
2023-02-28T00:15:27.646Z,4.75
2023-02-28T00:17:54.577Z,5.82
2023-02-28T00:20:21.847Z,7.53
2023-02-28T00:22:51.330Z,4.82
2023-02-28T00:25:20.908Z,5.43
2023-02-28T00:27:47.729Z,5.63
2023-02-28T00:30:17.967Z,5.28
2023-02-28T00:32:45.269Z,6.57
2023-02-28T00:35:12.879Z,4.18
2023-02-28T00:37:39.644Z,5.88
2023-02-28T00:40:07.532Z,5.45
2023-02-28T00:42:35.933Z,4.63
2023-02-28T00:45:04.847Z,6.37
2023-02-28T00:47:32.369Z,6.45
2023-02-28T00:49:59.268Z,7.72
2023-02-28T00:52:26.278Z,4.53
2023-02-28T00:54:52.948Z,5.63
2023-02-28T00:57:19.671Z,5.80
2023-02-28T00:59:46.412Z,6.25
2023-02-28T01:02:13.136Z,7.68
2023-02-28T01:04:39.894Z,4.97
2023-02-28T01:07:06.613Z,5.88
2023-02-28T01:09:33.300Z,4.28
2023-02-28T01:12:00.198Z,6.70
2023-02-28T01:14:27.012Z,5.55
2023-02-28T01:16:53.670Z,5.15
2023-02-28T01:19:20.491Z,4.80
2023-02-28T01:21:47.145Z,6.47
2023-02-28T01:24:14.840Z,7.97
2023-02-28T01:26:41.558Z,5.43
2023-02-28T01:29:08.348Z,7.90
2023-02-28T01:31:35.110Z,5.90
2023-02-28T01:34:02.526Z,8.38
2023-02-28T01:36:30.753Z,6.78
2023-02-28T01:38:57.832Z,7.43
2023-02-28T01:41:32.654Z,5.63
2023-02-28T01:44:04.385Z,7.57
2023-02-28T01:46:32.815Z,6.85
2023-02-28T01:48:59.575Z,7.17
2023-02-28T01:51:30.510Z,8.18
2023-02-28T01:54:03.094Z,7.22
2023-02-28T01:56:33.853Z,5.63
2023-02-28T01:59:00.739Z,5.57
2023-02-28T02:01:29.134Z,5.63
2023-02-28T02:03:59.985Z,6.13
2023-02-28T02:06:31.469Z,9.52
2023-02-28T02:08:58.147Z,6.18
2023-02-28T02:11:26.932Z,8.30
2023-02-28T02:14:18.488Z,6.80
2023-02-28T02:17:06.562Z,9.65
2023-02-28T02:19:51.709Z,6.70
2023-02-28T02:22:36.948Z,8.23
2023-02-28T02:25:18.456Z,7.47
2023-02-28T02:27:58.303Z,9.48
2023-02-28T02:30:45.464Z,6.90
2023-02-28T02:33:27.034Z,8.13
2023-02-28T02:36:18.115Z,6.05
2023-02-28T02:39:03.653Z,6.15
2023-02-28T02:41:49.424Z,5.95
2023-02-28T02:44:25.146Z,8.55
2023-02-28T02:46:59.352Z,6.45
2023-02-28T02:49:32.314Z,8.40
2023-02-28T02:52:04.405Z,6.80
2023-02-28T02:54:38.456Z,4.93
2023-02-28T02:57:10.624Z,5.80
2023-02-28T02:59:40.880Z,6.72
2023-02-28T03:02:12.281Z,6.50
2023-02-28T03:04:52.490Z,7.28
2023-02-28T03:07:19.156Z,5.50
2023-02-28T03:09:57.101Z,5.10
2023-02-28T03:12:32.610Z,6.90
2023-02-28T03:15:11.572Z,5.78
2023-02-28T03:18:00.897Z,5.65
2023-02-28T03:23:14.349Z,14.07
2023-02-28T03:26:12.497Z,11.52
2023-02-28T03:28:50.449Z,8.60
2023-02-28T03:31:49.539Z,13.60
2023-02-28T03:34:38.669Z,9.30
2023-02-28T03:37:18.173Z,9.40
2023-02-28T03:39:59.216Z,6.05
2023-02-28T03:42:30.688Z,5.95
2023-02-28T03:45:01.731Z,5.22
2023-02-28T03:47:44.396Z,8.32
2023-02-28T03:50:17.922Z,11.60
2023-02-28T03:52:51.927Z,11.18
2023-02-28T03:55:20.203Z,9.98
2023-02-28T03:58:11.201Z,8.60
2023-02-28T04:01:09.302Z,7.53
2023-02-28T04:03:40.399Z,9.77
2023-02-28T04:06:13.770Z,9.98
2023-02-28T04:08:40.865Z,5.32
2023-02-28T04:11:38.006Z,4.07
2023-02-28T04:14:05.972Z,4.00
2023-02-28T04:16:35.858Z,4.70
2023-02-28T04:19:07.181Z,5.00
2023-02-28T04:21:40.129Z,4.68
2023-02-28T04:24:08.313Z,4.65
2023-02-28T04:26:37.453Z,3.53
2023-02-28T04:29:06.312Z,4.93
2023-02-28T04:31:33.437Z,4.60
2023-02-28T04:34:00.974Z,4.72
2023-02-28T04:36:28.416Z,3.42
2023-02-28T04:38:55.731Z,4.50
2023-02-28T04:41:23.812Z,5.00
2023-02-28T04:43:52.741Z,3.55
2023-02-28T04:46:19.923Z,4.03
2023-02-28T04:48:46.758Z,3.85
2023-02-28T04:51:16.100Z,4.70
2023-02-28T04:56:13.625Z,3.47
2023-02-28T04:58:40.773Z,4.90
2023-02-28T05:01:17.774Z,3.50
2023-02-28T05:03:44.768Z,3.35
2023-02-28T05:06:13.208Z,3.60
2023-02-28T05:08:39.941Z,4.50
2023-02-28T05:11:13.364Z,4.45
2023-02-28T05:13:39.996Z,4.30
2023-02-28T05:16:07.059Z,4.68
2023-02-28T05:18:33.759Z,4.63
2023-02-28T05:21:03.316Z,3.50
2023-02-28T05:23:30.599Z,4.32
2023-02-28T05:25:57.702Z,3.80
2023-02-28T05:28:24.797Z,3.47
2023-02-28T05:30:51.452Z,4.85
2023-02-28T05:33:18.139Z,4.93
2023-02-28T05:35:44.869Z,4.30
2023-02-28T05:38:11.883Z,4.53
2023-02-28T05:40:40.693Z,5.32
2023-02-28T05:43:09.966Z,4.00
2023-02-28T05:48:03.365Z,3.97
2023-02-28T05:50:30.021Z,3.53
2023-02-28T05:52:56.709Z,4.65
2023-02-28T05:55:23.360Z,7.05
2023-02-28T05:57:50.027Z,5.55
2023-02-28T06:00:18.857Z,4.82
2023-02-28T06:02:45.639Z,5.90
2023-02-28T06:05:17.704Z,8.98
2023-02-28T06:07:45.306Z,6.88
2023-02-28T06:10:12.671Z,5.55
2023-02-28T06:12:39.772Z,4.80
2023-02-28T06:15:06.851Z,6.13
2023-02-28T06:17:33.537Z,6.00
2023-02-28T06:20:00.403Z,5.60
2023-02-28T06:22:27.190Z,5.30
2023-02-28T06:24:53.996Z,6.10
2023-02-28T06:27:21.365Z,6.57
2023-02-28T06:29:48.212Z,4.55
2023-02-28T06:32:14.962Z,5.45
2023-02-28T06:34:41.687Z,5.40
2023-02-28T06:37:08.436Z,6.30
2023-02-28T06:39:35.556Z,5.80
2023-02-28T06:42:02.315Z,5.05
2023-02-28T06:44:36.478Z,6.05
2023-02-28T06:47:05.009Z,3.65
2023-02-28T06:49:33.600Z,6.83
2023-02-28T06:52:00.389Z,5.37
2023-02-28T06:54:27.196Z,6.53
2023-02-28T06:56:55.331Z,5.03
2023-02-28T06:59:22.275Z,6.38
2023-02-28T07:01:48.966Z,5.28
2023-02-28T07:04:15.860Z,6.28
2023-02-28T07:06:42.597Z,8.63
2023-02-28T07:09:09.239Z,5.13
2023-02-28T07:11:36.133Z,6.45
2023-02-28T07:14:02.919Z,4.60
2023-02-28T07:16:29.574Z,6.90
2023-02-28T07:18:56.487Z,6.70
2023-02-28T07:21:23.526Z,4.90
2023-02-28T07:23:51.001Z,4.28
2023-02-28T07:26:19.499Z,7.45
2023-02-28T07:28:48.491Z,10.03
2023-02-28T07:31:16.787Z,5.15
2023-02-28T07:33:44.038Z,6.47
2023-02-28T07:36:16.125Z,5.45
2023-02-28T07:38:49.179Z,6.18
2023-02-28T07:41:17.859Z,5.50
2023-02-28T07:43:45.698Z,5.85
2023-02-28T07:46:16.184Z,6.18
2023-02-28T07:48:43.503Z,6.70
2023-02-28T07:51:10.239Z,5.95
2023-02-28T07:53:36.895Z,5.43
2023-02-28T07:56:04.098Z,5.32
2023-02-28T07:58:32.019Z,7.10
2023-02-28T08:00:58.998Z,6.25
2023-02-28T08:03:26.107Z,5.82
2023-02-28T08:05:53.801Z,6.68
2023-02-28T08:08:20.649Z,8.82
2023-02-28T08:10:47.377Z,6.63
2023-02-28T08:13:14.024Z,7.57
2023-02-28T08:15:43.908Z,8.13
2023-02-28T08:18:10.958Z,5.70
2023-02-28T08:20:37.796Z,8.32
2023-02-28T08:23:04.497Z,7.55
2023-02-28T08:25:31.104Z,8.00
2023-02-28T08:27:57.737Z,5.97
2023-02-28T08:30:24.334Z,7.40
2023-02-28T08:32:51.004Z,7.15
2023-02-28T08:35:17.646Z,7.65
2023-02-28T08:37:44.358Z,5.90
2023-02-28T08:40:11.925Z,6.35
2023-02-28T08:42:38.584Z,8.77
2023-02-28T08:45:05.703Z,8.73
2023-02-28T08:47:32.593Z,6.97
2023-02-28T08:49:59.179Z,7.65
2023-02-28T08:52:25.926Z,7.93
2023-02-28T08:54:52.641Z,6.55
2023-02-28T08:57:19.360Z,5.53
2023-02-28T08:59:46.052Z,9.45
2023-02-28T09:02:15.382Z,7.00
2023-02-28T09:07:09.260Z,5.72
2023-02-28T09:09:35.967Z,6.20
2023-02-28T09:12:03.205Z,5.53
2023-02-28T09:14:29.859Z,6.90
2023-02-28T09:16:56.466Z,5.35
2023-02-28T09:19:23.509Z,7.63
2023-02-28T09:21:50.205Z,8.98
2023-02-28T09:24:16.826Z,6.25
2023-02-28T09:26:56.548Z,6.22
2023-02-28T09:29:30.557Z,5.65
2023-02-28T09:31:59.662Z,7.10
2023-02-28T09:34:27.680Z,4.85
2023-02-28T09:36:56.062Z,7.88
2023-02-28T09:39:23.930Z,7.50
2023-02-28T09:41:53.402Z,5.88
2023-02-28T09:44:33.632Z,7.68
2023-02-28T09:47:26.488Z,7.85
2023-02-28T09:49:53.605Z,6.25
2023-02-28T09:52:25.579Z,6.45
2023-02-28T09:54:53.231Z,5.32
2023-02-28T09:57:25.533Z,5.43
2023-02-28T10:00:18.926Z,5.53
2023-02-28T10:03:02.456Z,6.43
2023-02-28T10:05:34.403Z,7.95
2023-02-28T10:08:11.393Z,5.82
2023-02-28T10:10:44.445Z,6.65
2023-02-28T10:13:17.617Z,6.63
2023-02-28T10:15:47.520Z,6.13
2023-02-28T10:18:21.039Z,9.02
2023-02-28T10:20:50.289Z,5.45
2023-02-28T10:23:46.076Z,5.93
2023-02-28T10:26:16.731Z,6.32
2023-02-28T10:28:44.355Z,6.90
2023-02-28T10:31:19.784Z,9.07
2023-02-28T10:33:46.903Z,5.38
2023-02-28T10:36:20.731Z,6.43
2023-02-28T10:38:48.341Z,5.32
2023-02-28T10:41:28.725Z,7.13
2023-02-28T10:44:15.010Z,8.10
2023-02-28T10:46:43.525Z,8.65
2023-02-28T10:49:26.961Z,5.13
2023-02-28T10:51:58.008Z,7.00
2023-02-28T10:54:30.707Z,5.38
2023-02-28T10:57:31.776Z,8.73
2023-02-28T11:00:15.835Z,6.45
2023-02-28T11:02:45.182Z,5.85
2023-02-28T11:08:13.019Z,7.05
2023-02-28T11:10:40.115Z,5.63
2023-02-28T11:13:07.135Z,6.40
2023-02-28T11:15:36.138Z,6.68
2023-02-28T11:18:23.930Z,7.07
2023-02-28T11:20:53.347Z,8.63
2023-02-28T11:25:52.155Z,6.90
2023-02-28T11:28:38.042Z,8.27
2023-02-28T11:31:20.501Z,7.25
2023-02-28T11:33:56.741Z,8.18
2023-02-28T11:36:34.235Z,5.72
2023-02-28T11:39:06.167Z,8.50
2023-02-28T11:42:27.689Z,7.43
2023-02-28T11:45:22.647Z,6.07
2023-02-28T11:48:10.743Z,6.32
2023-02-28T11:50:40.381Z,6.72
2023-02-28T11:53:20.273Z,7.10
2023-02-28T11:55:50.014Z,6.00
2023-02-28T11:58:40.858Z,7.03
2023-02-28T12:01:23.009Z,6.20
2023-02-28T12:04:05.517Z,7.55
2023-02-28T12:06:46.357Z,7.50
2023-02-28T12:09:43.456Z,5.97
2023-02-28T12:12:37.994Z,6.28
2023-02-28T12:15:34.027Z,6.20
2023-02-28T12:18:19.091Z,5.60
2023-02-28T12:21:04.485Z,7.70
2023-02-28T12:23:40.056Z,5.80
2023-02-28T12:26:32.419Z,7.28
2023-02-28T12:29:12.475Z,6.00
2023-02-28T12:31:48.857Z,6.03
2023-02-28T12:34:22.215Z,6.30
2023-02-28T12:36:52.882Z,7.43
2023-02-28T12:39:49.417Z,7.63
2023-02-28T12:42:26.023Z,7.72
2023-02-28T12:44:59.228Z,5.78
2023-02-28T12:47:26.047Z,7.95
2023-02-28T12:50:09.041Z,6.28
2023-02-28T12:52:55.940Z,8.68
2023-02-28T12:56:10.333Z,7.57
2023-02-28T12:58:39.231Z,7.47
2023-02-28T13:01:30.482Z,7.13
2023-02-28T13:04:07.729Z,7.63
2023-02-28T13:07:01.787Z,5.82
2023-02-28T13:09:30.547Z,6.95
2023-02-28T13:11:58.829Z,5.82
2023-02-28T13:14:38.327Z,5.43
2023-02-28T13:17:14.123Z,7.75
2023-02-28T13:19:58.991Z,7.28
2023-02-28T13:22:50.267Z,6.95
2023-02-28T13:25:22.939Z,7.40
2023-02-28T13:28:02.067Z,6.45
2023-02-28T13:30:57.104Z,5.50
2023-02-28T13:33:35.198Z,6.70
2023-02-28T13:36:20.322Z,8.85
2023-02-28T13:39:00.972Z,9.00
2023-02-28T13:41:31.119Z,8.45
2023-02-28T13:44:30.494Z,7.40
2023-02-28T13:46:57.038Z,7.40
2023-02-28T13:49:26.367Z,6.85
2023-02-28T13:52:08.042Z,9.43
2023-02-28T13:54:37.980Z,8.70
2023-02-28T13:57:29.405Z,5.95
2023-02-28T14:00:24.161Z,6.68
2023-02-28T14:02:59.901Z,8.32
2023-02-28T14:05:28.211Z,6.50
2023-02-28T14:07:58.096Z,5.53
2023-02-28T14:10:31.884Z,9.18
2023-02-28T14:13:02.295Z,7.35
2023-02-28T14:15:49.365Z,9.38
2023-02-28T14:18:19.159Z,8.75
2023-02-28T14:20:48.766Z,11.18
2023-02-28T14:23:47.041Z,8.82
2023-02-28T14:26:13.769Z,6.53
2023-02-28T14:28:46.614Z,6.85
2023-02-28T14:31:38.095Z,8.43
2023-02-28T14:34:04.686Z,6.55
2023-02-28T14:36:37.628Z,6.78
2023-02-28T14:39:16.910Z,9.07
2023-02-28T14:41:45.410Z,9.63
2023-02-28T14:44:18.547Z,8.97
2023-02-28T14:46:46.780Z,6.68
2023-02-28T14:49:25.796Z,9.82
2023-02-28T14:52:13.923Z,11.40
2023-02-28T14:54:41.237Z,9.85
2023-02-28T14:57:25.567Z,8.02
2023-02-28T15:00:13.076Z,10.85
2023-02-28T15:02:40.936Z,7.70
2023-02-28T15:05:13.352Z,7.18
2023-02-28T15:07:42.373Z,10.07
2023-02-28T15:10:19.981Z,7.57
2023-02-28T15:12:53.808Z,10.25
2023-02-28T15:15:28.175Z,8.82
2023-02-28T15:18:06.977Z,6.70
2023-02-28T15:20:34.744Z,9.48
2023-02-28T15:23:01.732Z,7.72
2023-02-28T15:25:28.710Z,9.32
2023-02-28T15:27:58.347Z,8.07
2023-02-28T15:30:33.732Z,8.90
2023-02-28T15:33:14.443Z,10.00
2023-02-28T15:35:41.145Z,8.73
2023-02-28T15:38:27.381Z,8.18
2023-02-28T15:40:56.235Z,8.68
2023-02-28T15:43:28.920Z,11.48
2023-02-28T15:45:58.723Z,11.25
2023-02-28T15:48:30.137Z,10.57
2023-02-28T15:51:03.869Z,10.48
2023-02-28T15:53:34.610Z,10.20
2023-02-28T15:56:07.765Z,7.95
2023-02-28T15:58:37.118Z,11.48
2023-02-28T16:01:21.615Z,10.85
2023-02-28T16:03:51.926Z,10.70
2023-02-28T16:06:34.646Z,8.70
2023-02-28T16:09:01.280Z,12.98
2023-02-28T16:11:28.847Z,8.85
2023-02-28T16:13:55.837Z,11.55
2023-02-28T16:16:25.372Z,9.70
2023-02-28T16:18:53.021Z,9.82
2023-02-28T16:21:19.656Z,12.52
2023-02-28T16:23:46.324Z,9.77
2023-02-28T16:26:27.472Z,10.18
2023-02-28T16:28:54.836Z,10.35
2023-02-28T16:31:21.946Z,9.38
2023-02-28T16:33:48.876Z,11.90
2023-02-28T16:36:21.144Z,10.63
2023-02-28T16:38:48.045Z,10.65
2023-02-28T16:41:20.030Z,10.45
2023-02-28T16:43:52.333Z,11.63
2023-02-28T16:46:19.699Z,11.00
2023-02-28T16:48:47.496Z,11.05
2023-02-28T16:51:16.346Z,9.70
2023-02-28T16:53:44.256Z,11.68
2023-02-28T16:56:23.957Z,12.30
2023-02-28T16:58:51.874Z,9.93
2023-02-28T17:01:22.939Z,11.52
2023-02-28T17:03:50.756Z,10.13
2023-02-28T17:06:24.278Z,10.55
2023-02-28T17:08:52.206Z,10.10
2023-02-28T17:11:20.123Z,10.30
2023-02-28T17:13:48.440Z,10.32
2023-02-28T17:16:22.429Z,11.52
2023-02-28T17:18:49.516Z,14.02
2023-02-28T17:21:17.652Z,13.07
2023-02-28T17:23:44.868Z,12.48
2023-02-28T17:26:25.403Z,13.95
2023-02-28T17:28:55.932Z,15.15
2023-02-28T17:31:24.333Z,14.93
2023-02-28T17:33:51.334Z,12.53
2023-02-28T17:36:23.212Z,11.75
2023-02-28T17:38:50.717Z,13.35
2023-02-28T17:41:17.477Z,13.15
2023-02-28T17:43:44.221Z,12.18
2023-02-28T17:46:23.391Z,14.95
2023-02-28T17:48:54.508Z,12.68
2023-02-28T17:51:23.812Z,13.77
2023-02-28T17:56:19.971Z,10.73
2023-02-28T17:58:50.472Z,13.30
2023-02-28T18:01:19.693Z,18.63
2023-02-28T18:03:46.404Z,13.95
2023-02-28T18:06:21.259Z,13.20
2023-02-28T18:08:48.704Z,15.05
2023-02-28T18:11:22.394Z,13.85
2023-02-28T18:13:53.856Z,14.95
2023-02-28T18:16:22.513Z,13.50
2023-02-28T18:19:25.033Z,15.27
2023-02-28T18:21:54.943Z,14.95
2023-02-28T18:24:23.608Z,14.65
2023-02-28T18:26:51.878Z,14.38
2023-02-28T18:29:24.877Z,24.98
2023-02-28T18:31:53.638Z,21.77
2023-02-28T18:34:21.554Z,17.02
2023-02-28T18:36:51.009Z,42.30
2023-02-28T18:39:18.361Z,17.25
2023-02-28T18:41:45.157Z,16.75
2023-02-28T18:44:20.204Z,18.23
2023-02-28T18:46:51.480Z,16.67
2023-02-28T18:49:18.797Z,20.15
2023-02-28T18:51:46.790Z,15.85
2023-02-28T18:54:15.416Z,17.23
2023-02-28T18:56:42.752Z,17.63
2023-02-28T18:59:10.291Z,16.75
2023-02-28T19:01:37.496Z,17.25
2023-02-28T19:04:08.103Z,17.13
2023-02-28T19:06:38.297Z,18.75
2023-02-28T19:09:06.185Z,19.17
2023-02-28T19:11:33.580Z,16.48
2023-02-28T19:14:02.763Z,17.05
2023-02-28T19:16:29.983Z,15.63
2023-02-28T19:18:57.853Z,15.85
2023-02-28T19:21:26.097Z,15.82
2023-02-28T19:23:53.303Z,16.65
2023-02-28T19:26:25.313Z,19.05
2023-02-28T19:28:51.991Z,17.83
2023-02-28T19:31:25.333Z,25.48
2023-02-28T19:33:53.104Z,17.90
2023-02-28T19:36:20.983Z,18.13
2023-02-28T19:38:48.057Z,21.35
2023-02-28T19:41:17.076Z,20.23
2023-02-28T19:43:44.081Z,19.90
2023-02-28T19:46:31.546Z,17.90
2023-02-28T19:48:58.410Z,22.80
2023-02-28T19:51:25.249Z,21.80
2023-02-28T19:53:52.007Z,26.95
2023-02-28T19:56:18.776Z,20.70
2023-02-28T19:58:45.573Z,19.25
2023-02-28T20:01:15.352Z,18.63
2023-02-28T20:03:43.065Z,19.67
2023-02-28T20:06:15.967Z,23.95
2023-02-28T20:08:42.833Z,24.58
2023-02-28T20:11:12.691Z,19.98
2023-02-28T20:13:39.581Z,21.23
2023-02-28T20:16:09.709Z,22.38
2023-02-28T20:18:37.879Z,20.35
2023-02-28T20:21:25.033Z,21.00
2023-02-28T20:23:51.840Z,22.15
2023-02-28T20:26:21.495Z,20.90
2023-02-28T20:28:48.837Z,19.60
2023-02-28T20:31:22.336Z,21.50
2023-02-28T20:33:50.792Z,21.48
2023-02-28T20:36:21.357Z,18.83
2023-02-28T20:38:48.675Z,24.73
2023-02-28T20:41:16.197Z,22.05
2023-02-28T20:43:43.087Z,16.75
2023-02-28T20:46:10.495Z,23.50
2023-02-28T20:48:37.830Z,21.92
2023-02-28T20:51:05.697Z,24.17
2023-02-28T20:53:34.665Z,24.58
2023-02-28T20:56:09.019Z,23.27
2023-02-28T20:58:38.276Z,20.77
2023-02-28T21:01:05.030Z,22.48
2023-02-28T21:03:31.862Z,21.13
2023-02-28T21:06:03.308Z,22.05
2023-02-28T21:08:30.173Z,20.85
2023-02-28T21:10:56.989Z,21.15
2023-02-28T21:13:24.011Z,20.92
2023-02-28T21:15:50.733Z,20.85
2023-02-28T21:18:17.544Z,22.90
2023-02-28T21:20:44.914Z,24.05
2023-02-28T21:23:11.839Z,19.90
2023-02-28T21:25:38.474Z,23.95
2023-02-28T21:28:06.408Z,21.08
2023-02-28T21:30:33.401Z,21.02
2023-02-28T21:33:00.301Z,20.25
2023-02-28T21:35:26.933Z,22.20
2023-02-28T21:37:53.655Z,23.38
2023-02-28T21:40:20.255Z,22.42
2023-02-28T21:42:46.921Z,23.02
2023-02-28T21:45:13.563Z,25.45
2023-02-28T21:47:40.252Z,26.40
2023-02-28T21:50:07.572Z,23.67
2023-02-28T21:52:34.494Z,23.83
2023-02-28T21:55:01.178Z,22.45
2023-02-28T21:57:28.073Z,32.17
2023-02-28T21:59:54.903Z,25.63
2023-02-28T22:02:21.519Z,20.75
2023-02-28T22:04:48.381Z,20.70
2023-02-28T22:07:15.820Z,24.98
2023-02-28T22:09:42.510Z,20.55
2023-02-28T22:12:09.312Z,22.27
2023-02-28T22:14:35.998Z,25.65
2023-02-28T22:17:02.747Z,21.70
2023-02-28T22:19:29.511Z,22.45
2023-02-28T22:21:56.279Z,21.90
2023-02-28T22:24:24.618Z,23.05
2023-02-28T22:26:52.641Z,22.87
2023-02-28T22:29:19.591Z,22.02
2023-02-28T22:31:46.443Z,22.98
2023-02-28T22:34:13.171Z,22.08
2023-02-28T22:36:43.779Z,24.33
2023-02-28T22:39:10.754Z,26.70
2023-02-28T22:41:38.041Z,25.90
2023-02-28T22:44:05.676Z,27.58
2023-02-28T22:46:34.470Z,26.65
2023-02-28T22:49:03.710Z,30.02
2023-02-28T22:51:31.321Z,26.63
2023-02-28T22:53:58.625Z,26.63
2023-02-28T22:56:28.406Z,23.20
2023-02-28T22:58:57.250Z,24.67
2023-02-28T23:01:26.722Z,26.57
2023-02-28T23:03:53.927Z,24.20
2023-02-28T23:06:35.021Z,23.35
2023-02-28T23:09:07.020Z,28.08
2023-02-28T23:11:36.862Z,25.27
2023-02-28T23:14:03.620Z,23.63
2023-02-28T23:16:42.903Z,27.15
2023-02-28T23:21:38.887Z,31.65
2023-02-28T23:24:10.524Z,26.13
2023-02-28T23:26:43.809Z,25.38
2023-02-28T23:29:12.208Z,28.50
2023-02-28T23:31:39.025Z,28.23
2023-02-28T23:34:06.100Z,26.75
2023-02-28T23:36:33.370Z,27.30
2023-02-28T23:39:00.224Z,27.83
2023-02-28T23:41:26.992Z,28.27
2023-02-28T23:44:17.121Z,25.95
2023-02-28T23:46:45.736Z,30.20
2023-02-28T23:49:13.044Z,34.10
2023-02-28T23:51:39.803Z,32.33
2023-02-28T23:54:06.844Z,29.92
2023-02-28T23:56:34.192Z,31.15
2023-02-28T23:59:00.965Z,34.03
